sensor_id;sensor_type;location;lat;lon;timestamp;temperature;humidity
2783;DHT22;1399;47.072;15.452;2023-02-22T00:00:29;11.00;47.20
2783;DHT22;1399;47.072;15.452;2023-02-22T00:05:51;11.00;47.30
2783;DHT22;1399;47.072;15.452;2023-02-22T00:08:20;11.00;47.30
2783;DHT22;1399;47.072;15.452;2023-02-22T00:10:47;11.00;47.30
2783;DHT22;1399;47.072;15.452;2023-02-22T00:13:18;10.90;47.30
2783;DHT22;1399;47.072;15.452;2023-02-22T00:15:46;10.90;47.30
2783;DHT22;1399;47.072;15.452;2023-02-22T00:18:14;10.90;47.30
2783;DHT22;1399;47.072;15.452;2023-02-22T00:20:41;10.90;47.40
2783;DHT22;1399;47.072;15.452;2023-02-22T00:23:16;10.90;47.50
2783;DHT22;1399;47.072;15.452;2023-02-22T00:25:47;10.90;47.50
2783;DHT22;1399;47.072;15.452;2023-02-22T00:28:13;10.90;47.50
2783;DHT22;1399;47.072;15.452;2023-02-22T00:30:42;10.90;47.50
2783;DHT22;1399;47.072;15.452;2023-02-22T00:33:13;10.90;47.50
2783;DHT22;1399;47.072;15.452;2023-02-22T00:35:39;10.80;47.50
2783;DHT22;1399;47.072;15.452;2023-02-22T00:38:06;10.90;47.60
2783;DHT22;1399;47.072;15.452;2023-02-22T00:40:33;10.80;47.70
2783;DHT22;1399;47.072;15.452;2023-02-22T00:43:01;10.80;47.70
2783;DHT22;1399;47.072;15.452;2023-02-22T00:45:29;10.80;47.70
2783;DHT22;1399;47.072;15.452;2023-02-22T00:47:55;10.80;47.80
2783;DHT22;1399;47.072;15.452;2023-02-22T00:50:23;10.80;47.80
2783;DHT22;1399;47.072;15.452;2023-02-22T00:52:50;10.80;47.80
2783;DHT22;1399;47.072;15.452;2023-02-22T00:55:24;10.80;47.80
2783;DHT22;1399;47.072;15.452;2023-02-22T00:57:51;10.80;47.90
2783;DHT22;1399;47.072;15.452;2023-02-22T01:00:21;10.80;48.00
2783;DHT22;1399;47.072;15.452;2023-02-22T01:02:47;10.80;48.00
2783;DHT22;1399;47.072;15.452;2023-02-22T01:05:19;10.70;48.00
2783;DHT22;1399;47.072;15.452;2023-02-22T01:07:47;10.80;48.10
2783;DHT22;1399;47.072;15.452;2023-02-22T01:10:16;10.70;48.10
2783;DHT22;1399;47.072;15.452;2023-02-22T01:12:47;10.70;48.10
2783;DHT22;1399;47.072;15.452;2023-02-22T01:15:18;10.70;48.10
2783;DHT22;1399;47.072;15.452;2023-02-22T01:17:48;10.60;48.10
2783;DHT22;1399;47.072;15.452;2023-02-22T01:20:14;10.60;48.10
2783;DHT22;1399;47.072;15.452;2023-02-22T01:22:43;10.60;48.10
2783;DHT22;1399;47.072;15.452;2023-02-22T01:25:11;10.60;48.20
2783;DHT22;1399;47.072;15.452;2023-02-22T01:27:37;10.60;48.20
2783;DHT22;1399;47.072;15.452;2023-02-22T01:30:05;10.60;48.20
2783;DHT22;1399;47.072;15.452;2023-02-22T01:32:38;10.60;48.30
2783;DHT22;1399;47.072;15.452;2023-02-22T01:35:07;10.60;48.30
2783;DHT22;1399;47.072;15.452;2023-02-22T01:37:34;10.50;48.30
2783;DHT22;1399;47.072;15.452;2023-02-22T01:40:01;10.50;48.40
2783;DHT22;1399;47.072;15.452;2023-02-22T01:42:29;10.50;48.40
2783;DHT22;1399;47.072;15.452;2023-02-22T01:48:03;10.40;48.50
2783;DHT22;1399;47.072;15.452;2023-02-22T01:50:34;10.40;48.50
2783;DHT22;1399;47.072;15.452;2023-02-22T01:53:03;10.40;48.60
2783;DHT22;1399;47.072;15.452;2023-02-22T01:55:31;10.40;48.60
2783;DHT22;1399;47.072;15.452;2023-02-22T01:57:57;10.40;48.80
2783;DHT22;1399;47.072;15.452;2023-02-22T02:00:24;10.40;48.80
2783;DHT22;1399;47.072;15.452;2023-02-22T02:02:59;10.40;48.90
2783;DHT22;1399;47.072;15.452;2023-02-22T02:05:28;10.30;48.90
2783;DHT22;1399;47.072;15.452;2023-02-22T02:07:57;10.30;48.90
2783;DHT22;1399;47.072;15.452;2023-02-22T02:10:24;10.30;48.90
2783;DHT22;1399;47.072;15.452;2023-02-22T02:12:52;10.30;48.90
2783;DHT22;1399;47.072;15.452;2023-02-22T02:15:26;10.30;49.00
2783;DHT22;1399;47.072;15.452;2023-02-22T02:18:01;10.30;49.00
2783;DHT22;1399;47.072;15.452;2023-02-22T02:37:02;10.20;49.20
2783;DHT22;1399;47.072;15.452;2023-02-22T02:39:53;10.20;49.30
2783;DHT22;1399;47.072;15.452;2023-02-22T02:42:24;10.20;49.30
2783;DHT22;1399;47.072;15.452;2023-02-22T02:45:05;10.10;49.30
2783;DHT22;1399;47.072;15.452;2023-02-22T02:47:39;10.10;49.40
2783;DHT22;1399;47.072;15.452;2023-02-22T02:50:22;10.10;49.40
2783;DHT22;1399;47.072;15.452;2023-02-22T02:52:51;10.10;49.50
2783;DHT22;1399;47.072;15.452;2023-02-22T02:55:18;10.10;49.60
2783;DHT22;1399;47.072;15.452;2023-02-22T02:57:44;10.00;49.50
2783;DHT22;1399;47.072;15.452;2023-02-22T03:00:14;10.00;49.60
2783;DHT22;1399;47.072;15.452;2023-02-22T03:13:50;10.00;49.70
2783;DHT22;1399;47.072;15.452;2023-02-22T03:16:23;10.00;49.70
2783;DHT22;1399;47.072;15.452;2023-02-22T03:19:19;9.90;50.60
2783;DHT22;1399;47.072;15.452;2023-02-22T03:21:55;9.90;50.60
2783;DHT22;1399;47.072;15.452;2023-02-22T03:26:59;9.90;50.70
2783;DHT22;1399;47.072;15.452;2023-02-22T03:29:30;9.80;50.70
2783;DHT22;1399;47.072;15.452;2023-02-22T03:32:02;9.80;50.80
2783;DHT22;1399;47.072;15.452;2023-02-22T03:34:40;9.80;50.80
2783;DHT22;1399;47.072;15.452;2023-02-22T03:37:17;9.80;50.90
2783;DHT22;1399;47.072;15.452;2023-02-22T03:39:45;9.80;50.90
2783;DHT22;1399;47.072;15.452;2023-02-22T03:42:20;9.80;51.00
2783;DHT22;1399;47.072;15.452;2023-02-22T03:44:50;9.80;51.00
2783;DHT22;1399;47.072;15.452;2023-02-22T03:47:26;9.80;51.10
2783;DHT22;1399;47.072;15.452;2023-02-22T03:50:19;9.80;51.10
2783;DHT22;1399;47.072;15.452;2023-02-22T03:52:46;9.70;51.10
2783;DHT22;1399;47.072;15.452;2023-02-22T03:55:13;9.70;51.20
2783;DHT22;1399;47.072;15.452;2023-02-22T03:57:49;9.70;51.30
2783;DHT22;1399;47.072;15.452;2023-02-22T04:00:22;9.70;51.40
2783;DHT22;1399;47.072;15.452;2023-02-22T04:02:49;9.70;51.40
2783;DHT22;1399;47.072;15.452;2023-02-22T04:05:16;9.70;51.50
2783;DHT22;1399;47.072;15.452;2023-02-22T04:07:42;9.60;51.50
2783;DHT22;1399;47.072;15.452;2023-02-22T04:10:09;9.60;51.60
2783;DHT22;1399;47.072;15.452;2023-02-22T04:12:36;9.60;51.60
2783;DHT22;1399;47.072;15.452;2023-02-22T04:15:04;9.60;51.60
2783;DHT22;1399;47.072;15.452;2023-02-22T04:17:30;9.60;51.60
2783;DHT22;1399;47.072;15.452;2023-02-22T04:19:56;9.60;51.70
2783;DHT22;1399;47.072;15.452;2023-02-22T04:22:22;9.60;51.70
2783;DHT22;1399;47.072;15.452;2023-02-22T04:24:48;9.60;51.80
2783;DHT22;1399;47.072;15.452;2023-02-22T04:27:15;9.60;51.90
2783;DHT22;1399;47.072;15.452;2023-02-22T04:29:41;9.60;52.00
2783;DHT22;1399;47.072;15.452;2023-02-22T04:32:07;9.60;52.00
2783;DHT22;1399;47.072;15.452;2023-02-22T04:34:33;9.60;52.10
2783;DHT22;1399;47.072;15.452;2023-02-22T04:36:59;9.50;52.00
2783;DHT22;1399;47.072;15.452;2023-02-22T04:39:25;9.50;52.10
2783;DHT22;1399;47.072;15.452;2023-02-22T04:41:51;9.60;52.20
2783;DHT22;1399;47.072;15.452;2023-02-22T04:44:16;9.50;52.80
2783;DHT22;1399;47.072;15.452;2023-02-22T04:46:42;9.50;52.20
2783;DHT22;1399;47.072;15.452;2023-02-22T04:49:08;9.50;52.30
2783;DHT22;1399;47.072;15.452;2023-02-22T04:51:34;9.50;52.30
2783;DHT22;1399;47.072;15.452;2023-02-22T04:54:01;9.50;52.30
2783;DHT22;1399;47.072;15.452;2023-02-22T04:56:27;9.50;52.30
2783;DHT22;1399;47.072;15.452;2023-02-22T04:58:53;9.50;52.40
2783;DHT22;1399;47.072;15.452;2023-02-22T05:01:20;9.50;52.40
2783;DHT22;1399;47.072;15.452;2023-02-22T05:03:46;9.40;52.50
2783;DHT22;1399;47.072;15.452;2023-02-22T05:06:12;9.40;52.50
2783;DHT22;1399;47.072;15.452;2023-02-22T05:08:38;9.40;52.60
2783;DHT22;1399;47.072;15.452;2023-02-22T05:11:04;9.40;52.70
2783;DHT22;1399;47.072;15.452;2023-02-22T05:13:30;9.40;52.80
2783;DHT22;1399;47.072;15.452;2023-02-22T05:15:56;9.40;52.90
2783;DHT22;1399;47.072;15.452;2023-02-22T05:18:22;9.40;53.00
2783;DHT22;1399;47.072;15.452;2023-02-22T05:20:48;9.40;53.10
2783;DHT22;1399;47.072;15.452;2023-02-22T05:23:14;9.30;53.20
2783;DHT22;1399;47.072;15.452;2023-02-22T05:25:40;9.30;53.30
2783;DHT22;1399;47.072;15.452;2023-02-22T05:28:14;9.40;53.30
2783;DHT22;1399;47.072;15.452;2023-02-22T05:30:40;9.40;53.40
2783;DHT22;1399;47.072;15.452;2023-02-22T05:33:07;9.30;53.40
2783;DHT22;1399;47.072;15.452;2023-02-22T05:35:33;9.30;53.40
2783;DHT22;1399;47.072;15.452;2023-02-22T05:38:02;9.30;53.40
2783;DHT22;1399;47.072;15.452;2023-02-22T05:40:29;9.40;53.50
2783;DHT22;1399;47.072;15.452;2023-02-22T05:42:55;9.40;53.60
2783;DHT22;1399;47.072;15.452;2023-02-22T05:45:23;9.40;53.60
2783;DHT22;1399;47.072;15.452;2023-02-22T05:47:50;9.30;53.60
2783;DHT22;1399;47.072;15.452;2023-02-22T05:50:18;9.30;53.60
2783;DHT22;1399;47.072;15.452;2023-02-22T05:52:44;9.40;53.70
2783;DHT22;1399;47.072;15.452;2023-02-22T05:55:13;9.40;53.70
2783;DHT22;1399;47.072;15.452;2023-02-22T05:57:39;9.40;53.70
2783;DHT22;1399;47.072;15.452;2023-02-22T06:00:06;9.40;53.80
2783;DHT22;1399;47.072;15.452;2023-02-22T06:02:33;9.40;53.90
2783;DHT22;1399;47.072;15.452;2023-02-22T06:04:59;9.40;53.90
2783;DHT22;1399;47.072;15.452;2023-02-22T06:07:25;9.40;53.90
2783;DHT22;1399;47.072;15.452;2023-02-22T06:09:52;9.40;53.90
2783;DHT22;1399;47.072;15.452;2023-02-22T06:12:18;9.40;54.00
2783;DHT22;1399;47.072;15.452;2023-02-22T06:14:44;9.40;54.00
2783;DHT22;1399;47.072;15.452;2023-02-22T06:17:13;9.40;54.10
2783;DHT22;1399;47.072;15.452;2023-02-22T06:19:39;9.40;54.10
2783;DHT22;1399;47.072;15.452;2023-02-22T06:22:06;9.40;54.10
2783;DHT22;1399;47.072;15.452;2023-02-22T06:24:33;9.40;54.10
2783;DHT22;1399;47.072;15.452;2023-02-22T06:27:00;9.50;54.10
2783;DHT22;1399;47.072;15.452;2023-02-22T06:29:27;9.50;54.10
2783;DHT22;1399;47.072;15.452;2023-02-22T06:31:54;9.50;54.00
2783;DHT22;1399;47.072;15.452;2023-02-22T06:34:20;9.60;54.00
2783;DHT22;1399;47.072;15.452;2023-02-22T06:36:47;9.60;54.00
2783;DHT22;1399;47.072;15.452;2023-02-22T06:39:14;9.60;54.50
2783;DHT22;1399;47.072;15.452;2023-02-22T06:41:42;9.60;53.90
2783;DHT22;1399;47.072;15.452;2023-02-22T06:44:09;9.70;53.90
2783;DHT22;1399;47.072;15.452;2023-02-22T06:46:36;9.70;53.90
2783;DHT22;1399;47.072;15.452;2023-02-22T06:49:03;9.80;53.90
2783;DHT22;1399;47.072;15.452;2023-02-22T06:51:30;9.80;53.90
2783;DHT22;1399;47.072;15.452;2023-02-22T06:54:00;9.80;53.80
2783;DHT22;1399;47.072;15.452;2023-02-22T06:56:26;9.90;53.80
2783;DHT22;1399;47.072;15.452;2023-02-22T06:58:52;9.90;53.70
2783;DHT22;1399;47.072;15.452;2023-02-22T07:01:17;10.00;52.90
2783;DHT22;1399;47.072;15.452;2023-02-22T07:03:43;10.00;52.80
2783;DHT22;1399;47.072;15.452;2023-02-22T07:06:09;10.00;52.70
2783;DHT22;1399;47.072;15.452;2023-02-22T07:08:35;10.10;52.80
2783;DHT22;1399;47.072;15.452;2023-02-22T07:11:02;10.10;53.30
2783;DHT22;1399;47.072;15.452;2023-02-22T07:13:28;10.20;52.80
2783;DHT22;1399;47.072;15.452;2023-02-22T07:15:54;10.20;52.60
2783;DHT22;1399;47.072;15.452;2023-02-22T07:18:20;10.30;52.70
2783;DHT22;1399;47.072;15.452;2023-02-22T07:20:46;10.30;52.70
2783;DHT22;1399;47.072;15.452;2023-02-22T07:23:16;10.40;52.70
2783;DHT22;1399;47.072;15.452;2023-02-22T07:25:42;10.40;52.70
2783;DHT22;1399;47.072;15.452;2023-02-22T07:28:09;10.40;52.60
2783;DHT22;1399;47.072;15.452;2023-02-22T07:30:37;10.50;52.70
2783;DHT22;1399;47.072;15.452;2023-02-22T07:33:09;10.50;52.60
2783;DHT22;1399;47.072;15.452;2023-02-22T07:35:38;10.60;52.70
2783;DHT22;1399;47.072;15.452;2023-02-22T07:38:06;10.60;52.50
2783;DHT22;1399;47.072;15.452;2023-02-22T07:40:36;10.70;52.60
2783;DHT22;1399;47.072;15.452;2023-02-22T07:43:03;10.70;52.40
2783;DHT22;1399;47.072;15.452;2023-02-22T07:45:34;10.80;52.50
2783;DHT22;1399;47.072;15.452;2023-02-22T07:48:02;10.80;52.40
2783;DHT22;1399;47.072;15.452;2023-02-22T07:50:30;10.90;52.40
2783;DHT22;1399;47.072;15.452;2023-02-22T07:52:59;11.00;52.30
2783;DHT22;1399;47.072;15.452;2023-02-22T07:55:28;11.00;52.20
2783;DHT22;1399;47.072;15.452;2023-02-22T07:57:57;11.10;52.20
2783;DHT22;1399;47.072;15.452;2023-02-22T08:00:27;11.20;52.10
2783;DHT22;1399;47.072;15.452;2023-02-22T08:02:53;11.20;52.00
2783;DHT22;1399;47.072;15.452;2023-02-22T08:05:22;11.30;51.90
2783;DHT22;1399;47.072;15.452;2023-02-22T08:07:48;11.30;51.80
2783;DHT22;1399;47.072;15.452;2023-02-22T08:10:16;11.40;51.80
2783;DHT22;1399;47.072;15.452;2023-02-22T08:12:42;11.40;51.60
2783;DHT22;1399;47.072;15.452;2023-02-22T08:15:14;11.40;51.50
2783;DHT22;1399;47.072;15.452;2023-02-22T08:17:41;11.50;51.40
2783;DHT22;1399;47.072;15.452;2023-02-22T08:20:07;11.50;51.30
2783;DHT22;1399;47.072;15.452;2023-02-22T08:22:33;11.60;51.30
2783;DHT22;1399;47.072;15.452;2023-02-22T08:24:59;11.70;51.30
2783;DHT22;1399;47.072;15.452;2023-02-22T08:27:29;11.70;51.20
2783;DHT22;1399;47.072;15.452;2023-02-22T08:29:55;11.80;51.20
2783;DHT22;1399;47.072;15.452;2023-02-22T08:32:22;11.80;51.10
2783;DHT22;1399;47.072;15.452;2023-02-22T08:34:48;11.90;51.10
2783;DHT22;1399;47.072;15.452;2023-02-22T08:37:16;11.90;51.00
2783;DHT22;1399;47.072;15.452;2023-02-22T08:39:43;12.00;51.00
2783;DHT22;1399;47.072;15.452;2023-02-22T08:42:09;12.00;50.90
2783;DHT22;1399;47.072;15.452;2023-02-22T08:44:36;12.10;51.00
2783;DHT22;1399;47.072;15.452;2023-02-22T08:47:04;12.10;50.90
2783;DHT22;1399;47.072;15.452;2023-02-22T08:49:30;12.20;50.90
2783;DHT22;1399;47.072;15.452;2023-02-22T08:51:56;12.20;50.90
2783;DHT22;1399;47.072;15.452;2023-02-22T08:54:22;12.30;50.90
2783;DHT22;1399;47.072;15.452;2023-02-22T08:56:49;12.30;50.90
2783;DHT22;1399;47.072;15.452;2023-02-22T08:59:15;12.30;51.40
2783;DHT22;1399;47.072;15.452;2023-02-22T09:01:42;12.40;50.90
2783;DHT22;1399;47.072;15.452;2023-02-22T09:04:08;12.40;50.80
2783;DHT22;1399;47.072;15.452;2023-02-22T09:06:34;12.40;50.80
2783;DHT22;1399;47.072;15.452;2023-02-22T09:09:01;12.50;50.70
2783;DHT22;1399;47.072;15.452;2023-02-22T09:11:27;12.50;50.70
2783;DHT22;1399;47.072;15.452;2023-02-22T09:13:53;12.50;50.70
2783;DHT22;1399;47.072;15.452;2023-02-22T09:16:19;12.60;50.80
2783;DHT22;1399;47.072;15.452;2023-02-22T09:18:45;12.60;50.70
2783;DHT22;1399;47.072;15.452;2023-02-22T09:21:12;12.70;50.70
2783;DHT22;1399;47.072;15.452;2023-02-22T09:23:38;12.70;50.70
2783;DHT22;1399;47.072;15.452;2023-02-22T09:26:06;12.70;50.70
2783;DHT22;1399;47.072;15.452;2023-02-22T09:28:32;12.70;50.70
2783;DHT22;1399;47.072;15.452;2023-02-22T09:30:58;12.80;50.80
2783;DHT22;1399;47.072;15.452;2023-02-22T09:33:24;12.80;50.70
2783;DHT22;1399;47.072;15.452;2023-02-22T09:35:50;12.80;50.70
2783;DHT22;1399;47.072;15.452;2023-02-22T09:38:19;12.90;50.70
2783;DHT22;1399;47.072;15.452;2023-02-22T09:44:08;12.90;50.70
2783;DHT22;1399;47.072;15.452;2023-02-22T09:46:40;13.00;50.80
2783;DHT22;1399;47.072;15.452;2023-02-22T09:49:27;13.00;50.80
2783;DHT22;1399;47.072;15.452;2023-02-22T09:52:07;13.00;50.80
2783;DHT22;1399;47.072;15.452;2023-02-22T09:54:48;13.10;50.90
2783;DHT22;1399;47.072;15.452;2023-02-22T09:57:32;13.10;50.90
2783;DHT22;1399;47.072;15.452;2023-02-22T10:00:21;13.10;51.00
2783;DHT22;1399;47.072;15.452;2023-02-22T10:05:24;13.10;51.10
2783;DHT22;1399;47.072;15.452;2023-02-22T10:08:03;13.20;51.20
2783;DHT22;1399;47.072;15.452;2023-02-22T10:10:36;13.40;51.20
2783;DHT22;1399;47.072;15.452;2023-02-22T10:13:24;13.50;51.10
2783;DHT22;1399;47.072;15.452;2023-02-22T10:16:02;13.60;51.00
2783;DHT22;1399;47.072;15.452;2023-02-22T10:24:57;13.60;51.10
2783;DHT22;1399;47.072;15.452;2023-02-22T10:27:36;13.60;51.20
2783;DHT22;1399;47.072;15.452;2023-02-22T10:30:18;13.60;51.20
2783;DHT22;1399;47.072;15.452;2023-02-22T10:33:09;13.60;51.20
2783;DHT22;1399;47.072;15.452;2023-02-22T10:35:36;13.80;51.20
2783;DHT22;1399;47.072;15.452;2023-02-22T10:38:24;14.00;51.00
2783;DHT22;1399;47.072;15.452;2023-02-22T10:43:29;14.10;50.60
2783;DHT22;1399;47.072;15.452;2023-02-22T10:46:03;14.10;50.60
2783;DHT22;1399;47.072;15.452;2023-02-22T10:48:31;14.10;50.80
2783;DHT22;1399;47.072;15.452;2023-02-22T10:51:02;14.00;50.90
2783;DHT22;1399;47.072;15.452;2023-02-22T10:53:30;14.00;51.10
2783;DHT22;1399;47.072;15.452;2023-02-22T10:59:01;13.90;51.30
2783;DHT22;1399;47.072;15.452;2023-02-22T11:04:10;13.90;51.50
2783;DHT22;1399;47.072;15.452;2023-02-22T11:06:39;13.90;51.60
2783;DHT22;1399;47.072;15.452;2023-02-22T11:09:09;13.90;51.60
2783;DHT22;1399;47.072;15.452;2023-02-22T11:11:38;13.90;51.70
2783;DHT22;1399;47.072;15.452;2023-02-22T11:14:04;13.90;51.70
2783;DHT22;1399;47.072;15.452;2023-02-22T11:16:41;13.90;51.70
2783;DHT22;1399;47.072;15.452;2023-02-22T11:19:20;13.90;51.80
2783;DHT22;1399;47.072;15.452;2023-02-22T11:21:53;13.90;51.80
2783;DHT22;1399;47.072;15.452;2023-02-22T11:24:23;14.00;51.90
2783;DHT22;1399;47.072;15.452;2023-02-22T11:26:58;14.00;52.10
2783;DHT22;1399;47.072;15.452;2023-02-22T11:31:52;14.00;52.10
2783;DHT22;1399;47.072;15.452;2023-02-22T11:34:36;14.00;52.10
2783;DHT22;1399;47.072;15.452;2023-02-22T11:39:51;14.00;52.20
2783;DHT22;1399;47.072;15.452;2023-02-22T11:42:28;14.00;52.20
2783;DHT22;1399;47.072;15.452;2023-02-22T11:48:05;14.00;52.30
2783;DHT22;1399;47.072;15.452;2023-02-22T11:53:28;14.00;52.20
2783;DHT22;1399;47.072;15.452;2023-02-22T12:08:08;14.00;52.40
2783;DHT22;1399;47.072;15.452;2023-02-22T12:16:30;14.00;52.50
2783;DHT22;1399;47.072;15.452;2023-02-22T12:19:09;14.00;52.50
2783;DHT22;1399;47.072;15.452;2023-02-22T12:21:41;14.10;52.50
2783;DHT22;1399;47.072;15.452;2023-02-22T12:25:06;14.10;52.60
2783;DHT22;1399;47.072;15.452;2023-02-22T12:27:15;14.00;52.50
2783;DHT22;1399;47.072;15.452;2023-02-22T12:29:51;14.10;52.60
2783;DHT22;1399;47.072;15.452;2023-02-22T12:32:30;14.10;52.60
2783;DHT22;1399;47.072;15.452;2023-02-22T12:43:50;14.10;52.50
2783;DHT22;1399;47.072;15.452;2023-02-22T12:46:22;14.10;52.40
2783;DHT22;1399;47.072;15.452;2023-02-22T12:51:47;14.10;52.50
2783;DHT22;1399;47.072;15.452;2023-02-22T12:57:26;14.10;52.50
2783;DHT22;1399;47.072;15.452;2023-02-22T13:00:00;14.10;52.50
2783;DHT22;1399;47.072;15.452;2023-02-22T13:02:49;14.10;52.50
2783;DHT22;1399;47.072;15.452;2023-02-22T13:05:20;14.10;52.50
2783;DHT22;1399;47.072;15.452;2023-02-22T13:08:13;14.20;53.30
2783;DHT22;1399;47.072;15.452;2023-02-22T13:11:13;14.20;52.60
2783;DHT22;1399;47.072;15.452;2023-02-22T13:27:17;14.20;52.30
2783;DHT22;1399;47.072;15.452;2023-02-22T13:29:48;14.20;52.20
2783;DHT22;1399;47.072;15.452;2023-02-22T13:51:51;14.20;51.80
2783;DHT22;1399;47.072;15.452;2023-02-22T13:57:00;14.20;51.80
2783;DHT22;1399;47.072;15.452;2023-02-22T13:59:31;14.20;51.90
2783;DHT22;1399;47.072;15.452;2023-02-22T14:01:59;14.10;51.90
2783;DHT22;1399;47.072;15.452;2023-02-22T14:07:03;14.20;52.00
2783;DHT22;1399;47.072;15.452;2023-02-22T14:09:49;14.20;52.00
2783;DHT22;1399;47.072;15.452;2023-02-22T14:17:57;14.20;51.80
2783;DHT22;1399;47.072;15.452;2023-02-22T14:20:36;14.20;51.80
2783;DHT22;1399;47.072;15.452;2023-02-22T14:23:38;14.20;51.80
2783;DHT22;1399;47.072;15.452;2023-02-22T14:34:16;14.20;51.80
2783;DHT22;1399;47.072;15.452;2023-02-22T14:36:45;14.10;51.70
2783;DHT22;1399;47.072;15.452;2023-02-22T14:42:20;14.10;51.70
2783;DHT22;1399;47.072;15.452;2023-02-22T14:47:23;14.10;51.70
2783;DHT22;1399;47.072;15.452;2023-02-22T14:50:01;14.10;51.70
2783;DHT22;1399;47.072;15.452;2023-02-22T14:52:30;14.10;51.70
2783;DHT22;1399;47.072;15.452;2023-02-22T14:55:23;14.10;51.70
2783;DHT22;1399;47.072;15.452;2023-02-22T14:58:01;14.10;51.70
2783;DHT22;1399;47.072;15.452;2023-02-22T15:00:44;14.10;51.70
2783;DHT22;1399;47.072;15.452;2023-02-22T15:03:26;14.10;51.60
2783;DHT22;1399;47.072;15.452;2023-02-22T15:06:04;14.10;51.60
2783;DHT22;1399;47.072;15.452;2023-02-22T15:08:30;14.10;51.60
2783;DHT22;1399;47.072;15.452;2023-02-22T15:10:59;14.10;51.50
2783;DHT22;1399;47.072;15.452;2023-02-22T15:13:29;14.10;51.50
2783;DHT22;1399;47.072;15.452;2023-02-22T15:16:01;14.10;51.50
2783;DHT22;1399;47.072;15.452;2023-02-22T15:18:42;14.10;51.50
2783;DHT22;1399;47.072;15.452;2023-02-22T15:21:16;14.10;51.50
2783;DHT22;1399;47.072;15.452;2023-02-22T15:23:54;14.10;51.50
2783;DHT22;1399;47.072;15.452;2023-02-22T15:26:47;14.10;51.50
2783;DHT22;1399;47.072;15.452;2023-02-22T15:29:28;14.00;51.40
2783;DHT22;1399;47.072;15.452;2023-02-22T15:31:57;14.00;51.30
2783;DHT22;1399;47.072;15.452;2023-02-22T15:34:28;14.00;51.30
2783;DHT22;1399;47.072;15.452;2023-02-22T15:36:56;14.00;51.40
2783;DHT22;1399;47.072;15.452;2023-02-22T15:39:26;14.00;51.40
2783;DHT22;1399;47.072;15.452;2023-02-22T15:42:26;14.00;51.40
2783;DHT22;1399;47.072;15.452;2023-02-22T15:44:55;13.90;51.30
2783;DHT22;1399;47.072;15.452;2023-02-22T15:47:23;13.90;51.40
2783;DHT22;1399;47.072;15.452;2023-02-22T15:55:29;13.90;51.40
2783;DHT22;1399;47.072;15.452;2023-02-22T15:57:59;13.90;51.40
2783;DHT22;1399;47.072;15.452;2023-02-22T16:00:35;13.80;51.40
2783;DHT22;1399;47.072;15.452;2023-02-22T16:03:14;13.80;51.40
2783;DHT22;1399;47.072;15.452;2023-02-22T16:05:47;13.80;51.40
2783;DHT22;1399;47.072;15.452;2023-02-22T16:08:25;13.80;51.40
2783;DHT22;1399;47.072;15.452;2023-02-22T16:11:04;13.80;51.40
2783;DHT22;1399;47.072;15.452;2023-02-22T16:13:38;13.80;51.50
2783;DHT22;1399;47.072;15.452;2023-02-22T16:18:51;13.70;51.50
2783;DHT22;1399;47.072;15.452;2023-02-22T16:21:20;13.70;51.50
2783;DHT22;1399;47.072;15.452;2023-02-22T16:23:54;13.70;51.60
2783;DHT22;1399;47.072;15.452;2023-02-22T16:26:32;13.60;51.60
2783;DHT22;1399;47.072;15.452;2023-02-22T16:29:07;13.60;51.60
2783;DHT22;1399;47.072;15.452;2023-02-22T16:31:38;13.60;51.70
2783;DHT22;1399;47.072;15.452;2023-02-22T16:34:06;13.60;51.70
2783;DHT22;1399;47.072;15.452;2023-02-22T16:36:45;13.50;51.70
2783;DHT22;1399;47.072;15.452;2023-02-22T16:39:30;13.50;51.80
2783;DHT22;1399;47.072;15.452;2023-02-22T16:42:01;13.50;52.50
2783;DHT22;1399;47.072;15.452;2023-02-22T16:44:27;13.50;51.90
2783;DHT22;1399;47.072;15.452;2023-02-22T16:46:58;13.50;52.00
2783;DHT22;1399;47.072;15.452;2023-02-22T16:49:25;13.40;51.90
2783;DHT22;1399;47.072;15.452;2023-02-22T16:51:53;13.40;52.00
2783;DHT22;1399;47.072;15.452;2023-02-22T16:54:25;13.40;52.10
2783;DHT22;1399;47.072;15.452;2023-02-22T16:56:55;13.40;52.20
2783;DHT22;1399;47.072;15.452;2023-02-22T16:59:22;13.40;52.30
2783;DHT22;1399;47.072;15.452;2023-02-22T17:01:48;13.40;52.30
2783;DHT22;1399;47.072;15.452;2023-02-22T17:04:24;13.40;52.40
2783;DHT22;1399;47.072;15.452;2023-02-22T17:06:51;13.40;52.40
2783;DHT22;1399;47.072;15.452;2023-02-22T17:09:18;13.30;52.40
2783;DHT22;1399;47.072;15.452;2023-02-22T17:11:49;13.30;52.40
2783;DHT22;1399;47.072;15.452;2023-02-22T17:14:19;13.30;52.50
2783;DHT22;1399;47.072;15.452;2023-02-22T17:16:49;13.30;52.60
2783;DHT22;1399;47.072;15.452;2023-02-22T17:19:20;13.30;52.60
2783;DHT22;1399;47.072;15.452;2023-02-22T17:21:47;13.30;52.80
2783;DHT22;1399;47.072;15.452;2023-02-22T17:24:17;13.30;52.70
2783;DHT22;1399;47.072;15.452;2023-02-22T17:26:45;13.30;52.70
2783;DHT22;1399;47.072;15.452;2023-02-22T17:29:11;13.30;52.80
2783;DHT22;1399;47.072;15.452;2023-02-22T17:31:38;13.20;53.40
2783;DHT22;1399;47.072;15.452;2023-02-22T17:34:05;13.20;52.80
2783;DHT22;1399;47.072;15.452;2023-02-22T17:36:32;13.20;52.90
2783;DHT22;1399;47.072;15.452;2023-02-22T17:39:01;13.20;52.90
2783;DHT22;1399;47.072;15.452;2023-02-22T17:41:28;13.20;53.00
2783;DHT22;1399;47.072;15.452;2023-02-22T17:43:54;13.20;53.00
2783;DHT22;1399;47.072;15.452;2023-02-22T17:46:23;13.20;53.10
2783;DHT22;1399;47.072;15.452;2023-02-22T17:48:50;13.10;53.10
2783;DHT22;1399;47.072;15.452;2023-02-22T17:51:20;13.20;53.20
2783;DHT22;1399;47.072;15.452;2023-02-22T17:53:47;13.10;53.20
2783;DHT22;1399;47.072;15.452;2023-02-22T17:56:14;13.10;53.30
2783;DHT22;1399;47.072;15.452;2023-02-22T17:58:52;13.10;53.30
2783;DHT22;1399;47.072;15.452;2023-02-22T18:01:30;13.10;53.40
2783;DHT22;1399;47.072;15.452;2023-02-22T18:04:08;13.00;53.40
2783;DHT22;1399;47.072;15.452;2023-02-22T18:06:34;13.00;53.50
2783;DHT22;1399;47.072;15.452;2023-02-22T18:09:02;13.00;53.50
2783;DHT22;1399;47.072;15.452;2023-02-22T18:11:36;13.00;53.60
2783;DHT22;1399;47.072;15.452;2023-02-22T18:14:02;13.00;53.60
2783;DHT22;1399;47.072;15.452;2023-02-22T18:16:28;12.90;53.60
2783;DHT22;1399;47.072;15.452;2023-02-22T18:18:55;12.90;53.70
2783;DHT22;1399;47.072;15.452;2023-02-22T18:21:22;12.90;53.70
2783;DHT22;1399;47.072;15.452;2023-02-22T18:23:51;12.90;53.80
2783;DHT22;1399;47.072;15.452;2023-02-22T18:26:21;12.90;53.80
2783;DHT22;1399;47.072;15.452;2023-02-22T18:28:48;12.80;53.80
2783;DHT22;1399;47.072;15.452;2023-02-22T18:31:18;12.80;53.90
2783;DHT22;1399;47.072;15.452;2023-02-22T18:33:46;12.80;53.90
2783;DHT22;1399;47.072;15.452;2023-02-22T18:36:15;12.80;54.00
2783;DHT22;1399;47.072;15.452;2023-02-22T18:38:42;12.80;54.00
2783;DHT22;1399;47.072;15.452;2023-02-22T18:41:14;12.70;54.00
2783;DHT22;1399;47.072;15.452;2023-02-22T18:43:41;12.70;54.00
2783;DHT22;1399;47.072;15.452;2023-02-22T18:48:38;12.70;54.10
2783;DHT22;1399;47.072;15.452;2023-02-22T18:51:07;12.60;54.00
2783;DHT22;1399;47.072;15.452;2023-02-22T18:53:35;12.60;54.10
2783;DHT22;1399;47.072;15.452;2023-02-22T18:56:07;12.60;54.10
2783;DHT22;1399;47.072;15.452;2023-02-22T18:58:34;12.60;54.20